Fallon, Montana
Current Conditions -  °F | °C
As of 8:15 AM on Wednesday 22 Oct 2014 (Local Time) from KGDV Reporting Station
Clear Clear  
Wind Chill: 40°   Ceiling: Unl
Heat Index: 46°   Visibility: 10mi
Dew Point: 37°   Wind: 14mph
Humidity: 71%   Direction: 250°WSW
Pressure: 29.89"   Gusts: NA
Location:  46.83°N, 105.13°W
Report Text: KGDV 221415Z AUTO 25012KT 10SM CLR 08/03 A2989 RMK AO1
Loading
Personal Weather Stations






























Interactive Weather Map
Tropical Storm Tracking
New forecast layout! Learn more

10-Day Weather Forecast

Advertisements
Track Severe Weather on mobile